Time;durP1;ratioP1;P1;durP2;ratioP2;P2;SDS_P1;SDS_P2;PMS_P1;PMS_P2;Temp;Humidity;BMP_temperature;BMP_pressure;BME280_temperature;BME280_humidity;BME280_pressure;Samples;Min_cycle;Max_cycle;Signal;HPM_P1;HPM_P2
2021/08/21 00:01:09;;;;;;;8.98;7.70;;;;;;;18.39;60.62;99370.80;1707630;84;21041;-42
2021/08/21 00:03:37;;;;;;;9.35;7.05;;;;;;;18.34;60.74;99379.48;1707780;83;22022;-42
2021/08/21 00:06:04;;;;;;;7.10;6.40;;;;;;;18.34;60.83;99371.25;1707453;83;21083;-42
2021/08/21 00:08:31;;;;;;;13.85;7.50;;;;;;;18.37;60.88;99375.91;1707415;84;21057;-42
2021/08/21 00:11:00;;;;;;;12.15;8.13;;;;;;;18.40;60.96;99379.19;1707318;83;21592;-42
2021/08/21 00:13:27;;;;;;;10.08;7.58;;;;;;;18.42;60.91;99378.79;1718893;83;21100;-41
2021/08/21 00:15:54;;;;;;;10.78;8.23;;;;;;;18.38;60.91;99377.47;1735634;82;21149;-42
2021/08/21 00:18:22;;;;;;;9.45;8.13;;;;;;;18.35;60.94;99377.52;1722724;83;21534;-41
2021/08/21 00:20:50;;;;;;;8.80;7.80;;;;;;;18.32;61.04;99376.36;1735417;82;20976;-41
2021/08/21 00:23:17;;;;;;;8.35;7.53;;;;;;;18.33;61.05;99375.77;1722990;83;21690;-41
2021/08/21 00:25:43;;;;;;;10.98;8.18;;;;;;;18.30;61.09;99374.61;1735360;82;21071;-42
2021/08/21 00:28:10;;;;;;;11.30;7.87;;;;;;;18.29;61.14;99370.92;1723009;83;21165;-41
2021/08/21 00:30:37;;;;;;;9.73;8.30;;;;;;;18.27;61.28;99374.06;1697276;82;21058;-41
2021/08/21 00:33:06;;;;;;;10.53;8.40;;;;;;;18.25;61.35;99370.94;1686634;85;21035;-41
2021/08/21 00:35:33;;;;;;;9.50;7.22;;;;;;;18.28;61.37;99369.36;1686503;83;21563;-41
2021/08/21 00:37:59;;;;;;;10.18;7.72;;;;;;;18.32;61.40;99362.63;1721526;83;21072;-42
2021/08/21 00:40:26;;;;;;;10.20;7.97;;;;;;;18.36;61.35;99364.73;1721275;83;21091;-42
2021/08/21 00:42:54;;;;;;;9.93;8.03;;;;;;;18.38;61.36;99368.45;1721197;82;20961;-41
2021/08/21 00:45:21;;;;;;;10.35;8.18;;;;;;;18.40;61.39;99369.58;1686229;85;21590;-42
2021/08/21 00:47:49;;;;;;;9.20;8.33;;;;;;;18.40;61.24;99365.47;1718497;80;21505;-41
2021/08/21 00:50:16;;;;;;;8.68;7.53;;;;;;;18.42;61.25;99370.55;1743221;82;21029;-41
2021/08/21 00:52:42;;;;;;;9.30;8.35;;;;;;;18.39;61.27;99363.93;1743264;82;21103;-41
2021/08/21 00:55:09;;;;;;;10.35;8.58;;;;;;;18.39;61.16;99361.78;1743235;82;21008;-42
2021/08/21 00:57:36;;;;;;;9.53;8.30;;;;;;;18.37;61.15;99366.30;1743160;81;21017;-41
2021/08/21 01:00:05;;;;;;;9.05;7.92;;;;;;;18.32;61.04;99363.23;1743094;81;21084;-42
2021/08/21 01:02:32;;;;;;;9.03;8.13;;;;;;;18.23;61.17;99364.52;1743261;81;21585;-41
2021/08/21 01:05:00;;;;;;;9.83;8.23;;;;;;;18.14;61.31;99356.59;1743174;82;21141;-41
2021/08/21 01:07:30;;;;;;;8.73;7.70;;;;;;;18.09;61.45;99357.05;1707591;83;20972;-42
2021/08/21 01:10:05;;;;;;;16.05;8.83;;;;;;;18.08;61.54;99357.62;1707567;84;21045;-41
2021/08/21 01:12:35;;;;;;;10.53;8.48;;;;;;;18.07;61.72;99358.03;1743153;81;20965;-42
2021/08/21 01:15:04;;;;;;;11.78;9.38;;;;;;;18.05;61.78;99356.31;1743269;81;21073;-42
2021/08/21 01:17:34;;;;;;;11.18;9.68;;;;;;;18.08;61.80;99360.97;1743308;81;21464;-41
2021/08/21 01:20:04;;;;;;;12.28;8.80;;;;;;;18.08;61.71;99360.97;1684535;84;21254;-41
2021/08/21 01:22:32;;;;;;;13.75;9.43;;;;;;;18.06;61.74;99357.25;1707472;84;20906;-42
2021/08/21 01:25:23;;;;;;;12.93;9.80;;;;;;;18.06;61.77;99364.11;1707627;84;21084;-42
2021/08/21 01:27:51;;;;;;;11.97;9.45;;;;;;;18.02;61.89;99362.59;1743203;81;21048;-42
2021/08/21 01:30:26;;;;;;;10.70;9.60;;;;;;;18.00;61.91;99373.22;1742516;81;21134;-41
2021/08/21 01:32:57;;;;;;;12.05;8.80;;;;;;;17.97;62.00;99367.16;1707101;84;20977;-41
2021/08/21 01:35:26;;;;;;;11.68;8.85;;;;;;;17.96;62.08;99369.73;1743277;81;20998;-42
2021/08/21 01:37:53;;;;;;;11.33;8.93;;;;;;;17.97;62.17;99365.19;1743186;82;20997;-42
2021/08/21 01:40:38;;;;;;;12.43;8.38;;;;;;;18.01;62.15;99370.05;1743290;82;21496;-42
2021/08/21 01:43:09;;;;;;;10.65;9.45;;;;;;;18.02;62.18;99368.08;1707507;83;21834;-42
2021/08/21 01:45:40;;;;;;;10.68;8.65;;;;;;;18.03;62.17;99364.16;1743722;81;20997;-41
2021/08/21 01:48:07;;;;;;;11.70;9.18;;;;;;;18.00;62.19;99363.61;1743172;81;20961;-41
2021/08/21 01:50:35;;;;;;;12.88;9.45;;;;;;;17.93;62.23;99362.30;1743378;82;21515;-41
2021/08/21 01:53:03;;;;;;;12.33;9.70;;;;;;;17.90;62.36;99364.50;1743044;82;21002;-42
2021/08/21 01:55:33;;;;;;;15.28;9.35;;;;;;;17.84;62.37;99361.42;1743757;81;21142;-41
2021/08/21 01:58:01;;;;;;;11.63;8.85;;;;;;;17.80;62.57;99360.09;1707756;83;21078;-41
2021/08/21 02:00:38;;;;;;;9.95;8.80;;;;;;;17.79;62.65;99364.02;1744202;81;20935;-42
2021/08/21 02:03:07;;;;;;;10.15;8.05;;;;;;;17.85;62.74;99362.20;1743274;81;20987;-41
2021/08/21 02:05:38;;;;;;;10.70;8.68;;;;;;;17.87;62.66;99361.19;1707444;83;20978;-42
2021/08/21 02:08:06;;;;;;;9.75;8.75;;;;;;;17.87;62.59;99365.30;1707551;84;21134;-41
2021/08/21 02:10:32;;;;;;;10.03;8.48;;;;;;;17.86;62.56;99359.66;1707538;82;20902;-42
2021/08/21 02:13:02;;;;;;;11.63;9.53;;;;;;;17.84;62.63;99358.69;1707437;84;21582;-42
2021/08/21 02:15:28;;;;;;;10.40;8.78;;;;;;;17.85;62.59;99360.84;1688051;84;21518;-42
2021/08/21 02:17:58;;;;;;;11.90;9.15;;;;;;;17.82;62.53;99356.93;1713799;83;21536;-41
2021/08/21 02:20:42;;;;;;;12.07;9.40;;;;;;;17.78;62.64;99352.86;1713488;83;21809;-41
2021/08/21 02:23:11;;;;;;;11.73;9.18;;;;;;;17.75;62.65;99360.54;1713586;82;21014;-41
2021/08/21 02:25:39;;;;;;;10.05;7.95;;;;;;;17.76;62.58;99353.09;1713416;82;20970;-41
2021/08/21 02:28:07;;;;;;;10.23;8.58;;;;;;;17.79;62.53;99355.80;1713505;83;21580;-41
2021/08/21 02:30:37;;;;;;;13.83;9.40;;;;;;;17.84;62.38;99353.79;1713659;82;21029;-42
2021/08/21 02:33:04;;;;;;;10.38;8.60;;;;;;;17.84;62.34;99352.42;1713457;82;21075;-41
2021/08/21 02:35:33;;;;;;;13.38;8.70;;;;;;;17.82;62.37;99352.81;1707908;83;20930;-42
2021/08/21 02:38:01;;;;;;;12.40;9.00;;;;;;;17.78;62.44;99354.23;1729265;82;21016;-41
2021/08/21 02:40:30;;;;;;;16.23;9.43;;;;;;;17.77;62.52;99351.30;1708056;82;20965;-42
2021/08/21 02:42:56;;;;;;;11.12;9.23;;;;;;;17.71;62.64;99350.20;1743402;82;21010;-41
2021/08/21 02:45:24;;;;;;;11.10;8.25;;;;;;;17.67;62.79;99359.03;1743040;82;21151;-41
2021/08/21 02:47:51;;;;;;;12.90;8.90;;;;;;;17.65;62.82;99353.79;1742781;81;20961;-42
2021/08/21 02:50:19;;;;;;;10.60;8.95;;;;;;;17.66;62.87;99356.13;1743286;81;21013;-42
2021/08/21 02:52:52;;;;;;;11.40;8.88;;;;;;;17.67;62.83;99356.30;1743287;81;21582;-42
2021/08/21 02:55:20;;;;;;;11.40;9.23;;;;;;;17.68;62.84;99359.81;1743256;82;21543;-41
2021/08/21 02:57:48;;;;;;;10.60;9.45;;;;;;;17.66;62.83;99351.23;1707322;84;21151;-41
2021/08/21 03:01:56;;;;;;;11.05;8.93;;;;;;;17.69;62.72;99358.05;1814839;79;22587;-41
2021/08/21 03:04:24;;;;;;;10.23;9.23;;;;;;;17.54;62.92;99355.22;1772411;80;20908;-41
2021/08/21 03:06:52;;;;;;;11.10;9.43;;;;;;;17.53;62.96;99356.40;1756948;81;21220;-41
2021/08/21 03:09:21;;;;;;;10.65;9.55;;;;;;;17.50;63.02;99357.22;1762071;80;21004;-42
2021/08/21 03:11:49;;;;;;;10.72;9.63;;;;;;;17.46;63.15;99357.85;1787893;80;20921;-42
2021/08/21 03:14:24;;;;;;;10.23;8.63;;;;;;;17.42;63.21;99358.48;1787604;80;21502;-42
2021/08/21 03:16:51;;;;;;;11.38;9.20;;;;;;;17.43;63.25;99356.52;1788054;80;20962;-42
2021/08/21 03:19:18;;;;;;;10.32;9.25;;;;;;;17.44;63.26;99358.84;1788172;80;21951;-42
2021/08/21 03:21:45;;;;;;;11.03;9.00;;;;;;;17.46;63.24;99359.22;1787816;80;20913;-42
2021/08/21 03:24:12;;;;;;;14.23;9.85;;;;;;;17.46;63.26;99358.44;1788273;80;21558;-42
2021/08/21 03:26:40;;;;;;;11.43;9.50;;;;;;;17.42;63.30;99350.84;1787925;80;20917;-42
2021/08/21 03:29:08;;;;;;;11.05;9.18;;;;;;;17.39;63.37;99354.58;1788107;80;21048;-42
2021/08/21 03:31:36;;;;;;;10.53;9.43;;;;;;;17.37;63.49;99354.22;1788128;80;21148;-42
2021/08/21 03:34:03;;;;;;;12.82;8.58;;;;;;;17.36;63.53;99354.02;1760232;80;20996;-42
2021/08/21 03:36:31;;;;;;;9.83;8.25;;;;;;;17.33;63.67;99356.19;1748711;82;21570;-42
2021/08/21 03:38:58;;;;;;;11.90;8.63;;;;;;;17.34;63.65;99362.45;1748623;82;20977;-42
2021/08/21 03:41:24;;;;;;;12.93;9.25;;;;;;;17.37;63.69;99361.66;1749086;82;21001;-42
2021/08/21 03:43:53;;;;;;;12.35;10.10;;;;;;;17.39;63.74;99363.38;1746862;82;21124;-42
2021/08/21 03:46:22;;;;;;;11.48;9.75;;;;;;;17.41;63.76;99367.87;1748574;82;20906;-42
2021/08/21 03:48:49;;;;;;;14.13;9.90;;;;;;;17.42;63.80;99370.81;1771361;79;20968;-42
2021/08/21 03:51:15;;;;;;;12.65;10.50;;;;;;;17.44;63.84;99372.54;1788224;80;20965;-42
2021/08/21 03:53:44;;;;;;;12.93;9.48;;;;;;;17.42;63.98;99374.14;1787964;80;21542;-42
2021/08/21 03:56:12;;;;;;;12.07;9.35;;;;;;;17.44;64.03;99373.12;1788263;80;21115;-42
2021/08/21 03:58:41;;;;;;;13.75;9.58;;;;;;;17.48;64.02;99364.28;1787381;80;21480;-42
2021/08/21 04:01:08;;;;;;;11.28;10.10;;;;;;;17.46;64.15;99377.63;1785434;80;21028;-42
2021/08/21 04:03:38;;;;;;;11.28;9.30;;;;;;;17.45;64.31;99374.10;1782978;80;20977;-42
2021/08/21 04:06:07;;;;;;;12.23;9.83;;;;;;;17.47;64.44;99382.72;1783017;80;21091;-42
2021/08/21 04:08:34;;;;;;;10.80;9.50;;;;;;;17.49;64.41;99384.44;1783386;80;21119;-42
2021/08/21 04:11:03;;;;;;;10.40;9.35;;;;;;;17.50;64.45;99384.63;1770710;80;21012;-42
2021/08/21 04:13:31;;;;;;;11.55;9.70;;;;;;;17.48;64.54;99391.10;1772342;80;21004;-42
2021/08/21 04:15:58;;;;;;;14.63;9.00;;;;;;;17.46;64.60;99391.33;1782613;80;21511;-42
2021/08/21 04:18:25;;;;;;;13.15;8.93;;;;;;;17.48;64.82;99389.73;1782499;80;20985;-42
2021/08/21 04:20:51;;;;;;;11.08;9.98;;;;;;;17.61;64.67;99391.42;1782635;80;21078;-42
2021/08/21 04:23:18;;;;;;;13.65;9.33;;;;;;;17.67;64.51;99394.67;1782321;80;20894;-42
2021/08/21 04:25:46;;;;;;;10.78;9.43;;;;;;;17.71;64.36;99395.45;1782641;80;21543;-41
2021/08/21 04:28:12;;;;;;;12.88;9.98;;;;;;;17.71;64.38;99392.70;1782382;80;21052;-42
2021/08/21 04:30:40;;;;;;;10.70;9.30;;;;;;;17.77;64.51;99396.55;1782601;80;21020;-42
2021/08/21 04:33:07;;;;;;;10.53;9.05;;;;;;;17.83;64.52;99391.99;1782400;80;21216;-42
2021/08/21 04:35:34;;;;;;;12.20;9.63;;;;;;;17.88;64.44;99394.29;1782352;80;20957;-42
2021/08/21 04:38:02;;;;;;;10.50;9.33;;;;;;;17.92;64.25;99397.77;1782432;80;21024;-42
2021/08/21 04:40:30;;;;;;;9.95;8.83;;;;;;;17.91;63.99;99392.13;1782806;80;20977;-42
2021/08/21 04:42:58;;;;;;;10.78;9.10;;;;;;;17.90;64.10;99394.08;1782278;80;20969;-42
2021/08/21 04:45:26;;;;;;;10.65;8.93;;;;;;;17.91;64.30;99387.39;1782553;80;21937;-42
2021/08/21 04:47:52;;;;;;;9.83;8.33;;;;;;;17.95;64.26;99392.86;1782249;80;21072;-42
2021/08/21 04:50:21;;;;;;;10.28;8.50;;;;;;;17.95;64.38;99394.23;1782804;80;20981;-42
2021/08/21 04:52:48;;;;;;;9.75;8.73;;;;;;;18.02;64.35;99391.40;1782554;80;21537;-42
2021/08/21 04:55:15;;;;;;;9.90;8.90;;;;;;;18.06;64.27;99390.17;1782535;80;21006;-42
2021/08/21 04:57:41;;;;;;;18.35;8.93;;;;;;;18.15;64.17;99389.70;1782236;80;21130;-42
2021/08/21 05:00:10;;;;;;;10.63;8.60;;;;;;;18.21;63.91;99393.53;1782468;80;21080;-42
2021/08/21 05:02:42;;;;;;;9.53;8.38;;;;;;;18.23;64.04;99396.07;1778353;80;21091;-42
2021/08/21 05:05:09;;;;;;;9.50;8.33;;;;;;;18.25;64.13;99395.64;1782535;80;21021;-42
2021/08/21 05:07:36;;;;;;;10.32;7.85;;;;;;;18.31;64.34;99391.27;1782558;80;21040;-42
2021/08/21 05:10:05;;;;;;;10.23;8.40;;;;;;;18.37;64.63;99394.34;1782689;80;21098;-42
2021/08/21 05:12:32;;;;;;;11.68;8.78;;;;;;;18.45;64.19;99391.09;1782595;80;20918;-42
2021/08/21 05:15:08;;;;;;;10.25;8.00;;;;;;;18.52;64.29;99391.02;1781778;80;21035;-42
2021/08/21 05:17:37;;;;;;;12.53;8.40;;;;;;;18.58;64.11;99396.86;1782473;80;21012;-42
2021/08/21 05:20:19;;;;;;;9.35;8.45;;;;;;;18.59;63.80;99399.17;1780637;80;21056;-42
2021/08/21 05:22:49;;;;;;;9.00;8.08;;;;;;;18.58;64.04;99394.89;1781335;80;21973;-42
2021/08/21 05:25:17;;;;;;;8.40;7.60;;;;;;;18.62;64.10;99400.33;1782601;80;21003;-42
2021/08/21 05:27:45;;;;;;;8.65;7.78;;;;;;;18.66;64.08;99400.47;1782301;80;21037;-42
2021/08/21 05:30:13;;;;;;;7.55;6.67;;;;;;;18.72;64.30;99399.41;1766517;80;21590;-42
2021/08/21 05:32:40;;;;;;;8.10;7.00;;;;;;;18.80;64.29;99398.71;1782508;80;21534;-42
2021/08/21 05:35:09;;;;;;;11.35;6.92;;;;;;;18.87;64.37;99401.38;1782890;80;21824;-42
2021/08/21 05:37:35;;;;;;;8.25;7.40;;;;;;;18.97;63.69;99399.07;1782347;79;20976;-42
2021/08/21 05:40:02;;;;;;;8.08;6.78;;;;;;;19.03;63.30;99398.17;1782430;80;21008;-42
2021/08/21 05:42:30;;;;;;;8.63;6.33;;;;;;;19.12;63.30;99399.05;1782503;80;21499;-42
2021/08/21 05:44:57;;;;;;;8.58;6.30;;;;;;;19.22;62.90;99403.58;1782304;80;21029;-42
2021/08/21 05:47:24;;;;;;;7.37;6.00;;;;;;;19.32;62.50;99401.26;1782435;80;21126;-42
2021/08/21 05:49:50;;;;;;;6.72;5.58;;;;;;;19.45;62.42;99405.63;1782445;80;20957;-42
2021/08/21 05:52:17;;;;;;;9.33;6.80;;;;;;;19.61;61.40;99403.57;1782526;80;21526;-42
2021/08/21 05:54:45;;;;;;;6.62;5.97;;;;;;;19.68;60.85;99397.96;1782531;80;20984;-42
2021/08/21 05:57:14;;;;;;;6.60;5.90;;;;;;;19.76;60.75;99397.41;1780773;80;21080;-42
2021/08/21 05:59:42;;;;;;;8.43;6.17;;;;;;;19.85;60.75;99397.64;1782405;79;20981;-42
2021/08/21 06:02:09;;;;;;;7.05;5.90;;;;;;;19.94;60.51;99397.86;1776587;80;21000;-42
2021/08/21 06:04:36;;;;;;;8.68;6.28;;;;;;;20.06;60.09;99399.22;1773968;80;21631;-42
2021/08/21 06:07:05;;;;;;;9.43;6.60;;;;;;;20.15;59.71;99391.18;1773799;80;21535;-42
2021/08/21 06:09:31;;;;;;;8.73;6.12;;;;;;;20.20;59.03;99395.42;1773967;80;21072;-42
2021/08/21 06:11:58;;;;;;;9.65;6.67;;;;;;;20.26;59.33;99387.62;1773980;80;21555;-42
2021/08/21 06:14:25;;;;;;;11.38;7.53;;;;;;;20.34;59.08;99390.44;1773875;80;20965;-42
2021/08/21 06:16:52;;;;;;;9.40;7.42;;;;;;;20.42;58.72;99393.84;1773917;80;21017;-42
2021/08/21 06:19:19;;;;;;;10.20;7.47;;;;;;;20.50;58.21;99390.32;1774075;80;21053;-42
2021/08/21 06:21:45;;;;;;;11.83;6.60;;;;;;;20.56;58.24;99396.30;1773786;80;21084;-42
2021/08/21 06:24:12;;;;;;;8.60;7.55;;;;;;;20.65;58.22;99398.47;1773737;80;21140;-42
2021/08/21 06:26:39;;;;;;;10.28;6.97;;;;;;;20.73;58.10;99391.59;1773716;80;20953;-42
2021/08/21 06:29:05;;;;;;;8.80;6.42;;;;;;;20.81;57.45;99388.28;1770010;80;21018;-42
2021/08/21 06:31:32;;;;;;;11.95;6.47;;;;;;;20.90;57.45;99395.17;1743352;82;21476;-42
2021/08/21 06:33:59;;;;;;;7.15;6.15;;;;;;;20.98;57.04;99393.20;1743201;82;21087;-42
2021/08/21 06:36:26;;;;;;;8.20;6.05;;;;;;;21.07;56.66;99387.87;1743154;82;21162;-42
2021/08/21 06:38:53;;;;;;;6.62;5.75;;;;;;;21.16;56.69;99390.83;1743069;82;21508;-42
2021/08/21 06:41:20;;;;;;;9.00;5.67;;;;;;;21.27;55.93;99391.18;1749262;80;20969;-42
2021/08/21 06:43:48;;;;;;;6.87;5.42;;;;;;;21.39;55.91;99396.02;1769517;80;20949;-42
2021/08/21 06:46:16;;;;;;;6.37;5.15;;;;;;;21.49;55.39;99394.98;1765099;80;21011;-42
2021/08/21 06:48:43;;;;;;;6.75;5.60;;;;;;;21.60;54.45;99394.09;1757371;80;21085;-42
2021/08/21 06:51:10;;;;;;;6.75;5.45;;;;;;;21.72;54.14;99392.63;1763853;81;21010;-42
2021/08/21 06:53:37;;;;;;;9.83;5.87;;;;;;;21.82;53.83;99393.73;1768023;80;21324;-42
2021/08/21 06:56:05;;;;;;;9.58;5.97;;;;;;;21.93;53.56;99392.86;1757359;80;21090;-42
2021/08/21 06:58:32;;;;;;;10.20;6.92;;;;;;;22.09;52.98;99394.20;1745281;80;21010;-42
2021/08/21 07:00:59;;;;;;;11.10;7.60;;;;;;;22.21;51.74;99394.70;1773820;80;21114;-42
2021/08/21 07:03:25;;;;;;;16.15;9.08;;;;;;;22.34;51.21;99396.28;1779115;80;20918;-42
2021/08/21 07:05:52;;;;;;;14.70;8.93;;;;;;;22.47;49.99;99396.30;1771584;80;21504;-42
2021/08/21 07:08:19;;;;;;;14.53;8.90;;;;;;;22.60;48.61;99403.25;1781486;80;21495;-42
2021/08/21 07:10:45;;;;;;;15.53;9.28;;;;;;;22.70;48.63;99400.20;1782008;80;21574;-42
2021/08/21 07:13:12;;;;;;;14.25;9.00;;;;;;;22.83;48.72;99399.61;1781694;80;21107;-42
2021/08/21 07:15:38;;;;;;;14.83;9.55;;;;;;;22.94;47.41;99400.06;1763375;80;20929;-41
2021/08/21 07:18:06;;;;;;;13.53;7.85;;;;;;;23.05;46.75;99402.47;1765954;80;21045;-42
2021/08/21 07:20:33;;;;;;;12.65;8.20;;;;;;;23.15;45.67;99406.13;1779026;79;21009;-41
2021/08/21 07:22:59;;;;;;;12.03;6.35;;;;;;;23.22;46.44;99403.92;1769705;80;21549;-41
2021/08/21 07:25:26;;;;;;;8.65;5.90;;;;;;;23.33;44.86;99407.73;1782569;80;21189;-41
2021/08/21 07:27:54;;;;;;;7.95;5.20;;;;;;;23.39;44.41;99400.41;1782350;80;21001;-42
2021/08/21 07:30:21;;;;;;;7.37;5.05;;;;;;;23.52;44.47;99405.97;1780204;80;20981;-41
2021/08/21 07:32:47;;;;;;;6.37;4.55;;;;;;;23.60;44.45;99406.66;1778841;80;21491;-41
2021/08/21 07:35:14;;;;;;;7.40;4.55;;;;;;;23.70;44.49;99405.53;1768570;80;20973;-42
2021/08/21 07:37:41;;;;;;;9.08;4.70;;;;;;;23.81;44.09;99408.72;1782065;80;21113;-42
2021/08/21 07:40:09;;;;;;;6.37;3.92;;;;;;;23.93;43.62;99403.57;1782510;80;21008;-42
2021/08/21 07:42:36;;;;;;;5.42;3.72;;;;;;;24.02;43.81;99406.41;1781745;80;21520;-42
2021/08/21 07:45:05;;;;;;;6.58;3.95;;;;;;;24.11;42.68;99410.64;1782269;80;22068;-42
2021/08/21 07:47:32;;;;;;;5.55;4.00;;;;;;;24.16;43.05;99413.64;1782498;80;21024;-42
2021/08/21 07:50:00;;;;;;;5.72;3.58;;;;;;;24.18;42.19;99404.28;1782548;80;22191;-42
2021/08/21 07:52:26;;;;;;;6.45;3.55;;;;;;;24.26;42.50;99413.09;1782134;80;20909;-42
2021/08/21 07:54:53;;;;;;;7.15;4.10;;;;;;;24.33;42.11;99413.46;1779514;80;21038;-42
2021/08/21 07:57:20;;;;;;;5.17;3.85;;;;;;;24.39;42.23;99411.05;1777489;80;21523;-42
2021/08/21 07:59:47;;;;;;;5.10;3.80;;;;;;;24.46;42.31;99410.78;1773423;80;21040;-42
2021/08/21 08:02:14;;;;;;;4.75;3.40;;;;;;;24.55;42.78;99413.60;1752193;80;21119;-42
2021/08/21 08:04:41;;;;;;;5.55;4.00;;;;;;;24.68;41.76;99420.47;1770179;80;20961;-41
2021/08/21 08:07:08;;;;;;;6.62;3.85;;;;;;;24.79;41.24;99413.11;1743948;80;21041;-41
2021/08/21 08:09:35;;;;;;;6.62;3.83;;;;;;;24.87;41.83;99412.44;1761115;81;21116;-42
2021/08/21 08:12:03;;;;;;;7.50;3.58;;;;;;;24.98;41.00;99411.39;1766434;81;21045;-41
2021/08/21 08:14:30;;;;;;;6.47;4.05;;;;;;;25.08;40.92;99408.81;1767279;81;21658;-41
2021/08/21 08:16:58;;;;;;;7.78;4.00;;;;;;;25.20;40.00;99406.40;1762735;81;20977;-42
2021/08/21 08:19:24;;;;;;;5.83;4.03;;;;;;;25.29;40.38;99416.91;1763104;80;20892;-42
2021/08/21 08:21:53;;;;;;;5.62;3.70;;;;;;;25.35;40.22;99414.31;1766662;80;20973;-42
2021/08/21 08:24:19;;;;;;;5.35;3.92;;;;;;;25.38;39.97;99412.77;1753379;81;21071;-41
2021/08/21 08:26:46;;;;;;;4.45;3.45;;;;;;;25.42;40.52;99411.23;1763875;81;21191;-41
2021/08/21 08:29:13;;;;;;;5.70;3.70;;;;;;;25.48;39.90;99418.52;1762309;81;21004;-43
2021/08/21 08:31:40;;;;;;;5.10;3.40;;;;;;;25.53;39.74;99417.91;1768425;80;21037;-42
2021/08/21 08:34:06;;;;;;;4.95;3.10;;;;;;;25.64;38.79;99410.56;1760412;80;21035;-42
2021/08/21 08:36:33;;;;;;;4.30;3.12;;;;;;;25.69;38.67;99403.62;1759936;81;21053;-42
2021/08/21 08:39:00;;;;;;;4.90;3.17;;;;;;;25.68;38.70;99407.63;1768795;81;21136;-42
2021/08/21 08:41:26;;;;;;;4.47;3.42;;;;;;;25.63;39.18;99407.63;1768999;81;21583;-42
2021/08/21 08:43:53;;;;;;;3.47;2.72;;;;;;;25.56;38.42;99402.99;1764833;80;21751;-42
2021/08/21 08:46:21;;;;;;;4.55;3.20;;;;;;;25.45;38.81;99409.72;1766907;81;21076;-41
2021/08/21 08:48:47;;;;;;;6.20;3.20;;;;;;;25.42;38.65;99412.02;1738278;81;21468;-42
2021/08/21 08:51:15;;;;;;;6.37;3.55;;;;;;;25.43;38.55;99412.17;1760244;81;21127;-42
2021/08/21 08:53:42;;;;;;;5.15;3.27;;;;;;;25.47;38.95;99407.86;1764284;81;21627;-42
2021/08/21 08:56:08;;;;;;;4.53;2.90;;;;;;;25.49;38.54;99403.41;1760847;81;21535;-41
2021/08/21 08:58:36;;;;;;;4.20;3.27;;;;;;;25.56;38.19;99405.77;1760449;81;21036;-42
2021/08/21 09:01:03;;;;;;;4.10;3.27;;;;;;;25.64;38.42;99409.78;1749409;81;21535;-42
2021/08/21 09:03:32;;;;;;;5.00;3.25;;;;;;;25.77;38.55;99403.47;1763798;80;21132;-42
2021/08/21 09:05:59;;;;;;;4.15;3.02;;;;;;;25.96;38.31;99400.86;1767591;80;22258;-42
2021/08/21 09:08:34;;;;;;;3.70;3.02;;;;;;;26.07;37.50;99394.23;1763995;80;21045;-42
2021/08/21 09:11:03;;;;;;;3.87;2.80;;;;;;;26.13;37.38;99389.60;1751847;80;21005;-42
2021/08/21 09:13:31;;;;;;;4.15;2.90;;;;;;;26.22;37.07;99397.95;1768031;80;21044;-42
2021/08/21 09:16:01;;;;;;;6.83;3.02;;;;;;;26.30;37.10;99396.39;1745700;80;21121;-42
2021/08/21 09:18:29;;;;;;;4.95;3.10;;;;;;;26.35;35.90;99392.22;1769980;80;21001;-42
2021/08/21 09:21:02;;;;;;;5.53;3.10;;;;;;;26.39;36.71;99388.03;1773964;80;21022;-42
2021/08/21 09:23:46;;;;;;;2.83;2.62;;;;;;;26.46;35.91;99388.96;1773001;80;21565;-42
2021/08/21 09:26:41;;;;;;;5.12;2.60;;;;;;;26.55;36.30;99392.49;1772250;80;21072;-42
2021/08/21 09:28:51;;;;;;;4.58;3.00;;;;;;;26.56;34.68;99381.53;1770433;80;21121;-41
2021/08/21 09:31:22;;;;;;;6.65;2.85;;;;;;;26.52;35.99;99385.71;1771882;80;21551;-41
2021/08/21 09:34:00;;;;;;;4.83;2.72;;;;;;;26.63;35.41;99390.91;1743663;80;21029;-42
2021/08/21 09:36:37;;;;;;;4.90;3.08;;;;;;;26.71;35.76;99387.98;1769458;80;21456;-42
2021/08/21 09:39:07;;;;;;;2.83;2.20;;;;;;;26.77;35.58;99383.95;1774444;80;21636;-42
2021/08/21 09:41:57;;;;;;;3.75;2.62;;;;;;;26.84;35.18;99389.16;1773201;80;22163;-42
2021/08/21 09:44:36;;;;;;;4.40;2.67;;;;;;;26.96;35.16;99395.19;1764381;80;21558;-42
2021/08/21 09:47:29;;;;;;;3.92;2.92;;;;;;;27.06;34.41;99385.53;1753404;80;20909;-42
2021/08/21 09:50:15;;;;;;;4.53;2.70;;;;;;;27.16;34.09;99389.81;1766601;80;21061;-42
2021/08/21 09:52:42;;;;;;;3.17;2.50;;;;;;;27.16;34.63;99392.59;1770440;80;21076;-42
2021/08/21 09:55:15;;;;;;;6.00;2.58;;;;;;;27.10;34.59;99391.72;1768411;80;21100;-43
2021/08/21 09:57:40;;;;;;;4.70;2.83;;;;;;;27.07;34.29;99394.66;1768906;80;21562;-42
2021/08/21 10:00:09;;;;;;;3.10;2.80;;;;;;;27.08;34.34;99393.42;1760036;80;20972;-42
2021/08/21 10:02:42;;;;;;;4.12;2.70;;;;;;;27.20;33.67;99395.23;1773526;80;21583;-42
2021/08/21 10:05:10;;;;;;;3.52;2.65;;;;;;;27.37;33.63;99395.59;1745830;80;21570;-43
2021/08/21 10:07:40;;;;;;;3.12;2.52;;;;;;;27.60;33.79;99387.27;1759706;80;21499;-43
2021/08/21 10:10:08;;;;;;;2.95;2.60;;;;;;;27.90;33.94;99392.31;1764886;80;21033;-42
2021/08/21 10:12:37;;;;;;;3.95;2.72;;;;;;;28.17;33.23;99389.97;1768225;80;21081;-43
2021/08/21 10:15:06;;;;;;;3.10;2.60;;;;;;;28.40;32.15;99386.33;1745735;82;21041;-43
2021/08/21 10:17:33;;;;;;;4.62;2.83;;;;;;;28.64;32.09;99390.41;1740540;80;21556;-43
2021/08/21 10:19:59;;;;;;;3.62;2.90;;;;;;;28.83;31.00;99382.01;1764976;80;21179;-45
2021/08/21 10:22:28;;;;;;;3.33;2.58;;;;;;;28.96;32.12;99384.48;1754057;80;21057;-42
2021/08/21 10:25:03;;;;;;;5.85;2.67;;;;;;;29.05;30.90;99385.75;1758489;80;20985;-42
2021/08/21 10:27:46;;;;;;;4.30;2.83;;;;;;;29.02;31.58;99381.77;1744360;80;22151;-42
2021/08/21 10:30:20;;;;;;;4.83;2.62;;;;;;;28.99;31.38;99378.57;1764732;80;21090;-42
2021/08/21 10:33:03;;;;;;;7.17;2.87;;;;;;;29.05;31.07;99378.03;1774154;80;21169;-42
2021/08/21 10:35:50;;;;;;;5.10;2.70;;;;;;;29.21;31.92;99370.52;1770567;80;21036;-43
2021/08/21 10:38:36;;;;;;;3.77;2.95;;;;;;;29.54;31.19;99379.37;1750844;80;21003;-42
2021/08/21 10:41:11;;;;;;;3.90;2.35;;;;;;;29.78;29.53;99374.34;1740807;80;21033;-42
2021/08/21 10:43:50;;;;;;;3.65;2.45;;;;;;;29.82;29.77;99378.97;1770703;80;21046;-42
2021/08/21 10:46:35;;;;;;;3.08;2.65;;;;;;;29.97;30.09;99375.45;1775115;80;21120;-43
2021/08/21 10:49:05;;;;;;;2.85;2.42;;;;;;;30.35;30.54;99374.35;1773581;80;20902;-42
2021/08/21 10:51:48;;;;;;;4.30;2.37;;;;;;;30.62;29.07;99371.83;1768885;80;21460;-42
2021/08/21 10:54:32;;;;;;;4.50;2.35;;;;;;;30.75;28.10;99386.03;1762285;80;21328;-42
2021/08/21 10:57:23;;;;;;;3.45;2.77;;;;;;;30.74;28.46;99380.32;1746613;80;21024;-42
2021/08/21 10:59:50;;;;;;;4.05;2.52;;;;;;;30.79;27.90;99368.41;1758986;80;21147;-43
2021/08/21 11:02:34;;;;;;;4.97;2.67;;;;;;;30.72;28.17;99368.84;1772908;80;21595;-43
2021/08/21 11:05:01;;;;;;;3.50;2.62;;;;;;;30.71;29.00;99375.70;1737460;82;21088;-42
2021/08/21 11:07:37;;;;;;;2.40;2.20;;;;;;;30.61;28.43;99368.12;1736337;82;20990;-43
2021/08/21 11:10:17;;;;;;;3.17;2.55;;;;;;;30.59;29.23;99371.43;1732654;82;21026;-42
2021/08/21 11:12:47;;;;;;;3.55;2.70;;;;;;;30.64;28.47;99364.34;1721853;82;21077;-42
2021/08/21 11:15:30;;;;;;;3.47;2.58;;;;;;;30.68;28.56;99371.88;1731544;82;21005;-43
2021/08/21 11:17:54;;;;;;;3.05;2.47;;;;;;;30.72;29.41;99368.84;1724039;82;21049;-43
2021/08/21 11:20:36;;;;;;;5.85;2.60;;;;;;;30.90;28.42;99365.03;1722970;82;20969;-43
2021/08/21 11:23:16;;;;;;;4.78;2.70;;;;;;;31.03;27.70;99353.46;1725424;82;20986;-42
2021/08/21 11:25:44;;;;;;;4.60;2.85;;;;;;;31.06;27.54;99360.85;1722699;81;21140;-43
2021/08/21 11:28:22;;;;;;;3.97;2.80;;;;;;;31.05;27.74;99357.91;1726112;82;21505;-42
2021/08/21 11:31:10;;;;;;;3.42;2.55;;;;;;;31.23;28.58;99361.70;1718170;82;21097;-42
2021/08/21 11:33:40;;;;;;;2.92;2.60;;;;;;;31.48;27.63;99360.83;1688134;82;21528;-43
2021/08/21 11:36:10;;;;;;;6.58;3.80;;;;;;;31.54;27.67;99365.06;1733034;82;21539;-42
2021/08/21 11:38:39;;;;;;;4.45;3.85;;;;;;;31.41;27.59;99365.52;1724497;82;21980;-42
2021/08/21 11:41:13;;;;;;;3.98;2.92;;;;;;;31.44;27.87;99365.91;1720708;82;24251;-43